sensor_id;sensor_type;location;lat;lon;timestamp;temperature;humidity
71297;SHT31;59082;50.658;4.608;2023-10-19T00:00:57;24.14;87.19
71297;SHT31;59082;50.658;4.608;2023-10-19T00:03:23;24.55;87.93
71297;SHT31;59082;50.658;4.608;2023-10-19T00:05:50;23.80;86.81
71297;SHT31;59082;50.658;4.608;2023-10-19T00:08:15;24.44;88.61
71297;SHT31;59082;50.658;4.608;2023-10-19T00:10:50;24.03;87.41
71297;SHT31;59082;50.658;4.608;2023-10-19T00:13:28;24.23;88.14
71297;SHT31;59082;50.658;4.608;2023-10-19T00:15:56;23.61;88.09
71297;SHT31;59082;50.658;4.608;2023-10-19T00:18:26;23.79;88.80
71297;SHT31;59082;50.658;4.608;2023-10-19T00:20:54;23.22;87.45
71297;SHT31;59082;50.658;4.608;2023-10-19T00:23:25;23.97;88.14
71297;SHT31;59082;50.658;4.608;2023-10-19T00:25:55;24.07;89.41
71297;SHT31;59082;50.658;4.608;2023-10-19T00:28:21;23.76;88.46
71297;SHT31;59082;50.658;4.608;2023-10-19T00:30:48;23.12;86.75
71297;SHT31;59082;50.658;4.608;2023-10-19T00:33:15;23.69;86.90
71297;SHT31;59082;50.658;4.608;2023-10-19T00:35:45;23.70;86.30
71297;SHT31;59082;50.658;4.608;2023-10-19T00:38:26;23.21;86.40
71297;SHT31;59082;50.658;4.608;2023-10-19T00:41:01;24.07;86.88
71297;SHT31;59082;50.658;4.608;2023-10-19T00:43:43;23.79;86.53
71297;SHT31;59082;50.658;4.608;2023-10-19T00:46:12;22.76;85.42
71297;SHT31;59082;50.658;4.608;2023-10-19T00:48:49;24.58;86.83
71297;SHT31;59082;50.658;4.608;2023-10-19T00:51:17;23.69;86.74
71297;SHT31;59082;50.658;4.608;2023-10-19T00:54:15;24.30;87.68
71297;SHT31;59082;50.658;4.608;2023-10-19T00:56:42;24.31;86.41
71297;SHT31;59082;50.658;4.608;2023-10-19T00:59:12;24.02;86.82
71297;SHT31;59082;50.658;4.608;2023-10-19T01:01:43;24.38;86.62
71297;SHT31;59082;50.658;4.608;2023-10-19T01:04:11;24.25;86.82
71297;SHT31;59082;50.658;4.608;2023-10-19T01:06:42;23.82;87.17
71297;SHT31;59082;50.658;4.608;2023-10-19T01:09:25;24.31;86.97
71297;SHT31;59082;50.658;4.608;2023-10-19T01:11:53;23.87;86.75
71297;SHT31;59082;50.658;4.608;2023-10-19T01:14:20;23.79;86.52
71297;SHT31;59082;50.658;4.608;2023-10-19T01:16:47;24.41;87.43
71297;SHT31;59082;50.658;4.608;2023-10-19T01:19:15;23.80;86.53
71297;SHT31;59082;50.658;4.608;2023-10-19T01:21:44;23.49;85.81
71297;SHT31;59082;50.658;4.608;2023-10-19T01:24:18;24.07;87.19
71297;SHT31;59082;50.658;4.608;2023-10-19T01:26:46;23.61;86.67
71297;SHT31;59082;50.658;4.608;2023-10-19T01:29:12;23.77;87.66
71297;SHT31;59082;50.658;4.608;2023-10-19T01:31:43;23.96;87.80
71297;SHT31;59082;50.658;4.608;2023-10-19T01:34:22;23.68;87.17
71297;SHT31;59082;50.658;4.608;2023-10-19T01:36:47;23.39;87.09
71297;SHT31;59082;50.658;4.608;2023-10-19T01:39:16;24.03;87.71
71297;SHT31;59082;50.658;4.608;2023-10-19T01:41:44;24.25;87.99
71297;SHT31;59082;50.658;4.608;2023-10-19T01:44:10;24.03;86.61
71297;SHT31;59082;50.658;4.608;2023-10-19T01:46:39;23.61;87.56
71297;SHT31;59082;50.658;4.608;2023-10-19T01:49:05;23.86;88.28
71297;SHT31;59082;50.658;4.608;2023-10-19T01:51:32;23.30;87.15
71297;SHT31;59082;50.658;4.608;2023-10-19T01:53:59;23.34;87.68
71297;SHT31;59082;50.658;4.608;2023-10-19T01:56:26;23.83;88.34
71297;SHT31;59082;50.658;4.608;2023-10-19T01:58:53;23.90;88.20
71297;SHT31;59082;50.658;4.608;2023-10-19T02:01:20;23.21;87.19
71297;SHT31;59082;50.658;4.608;2023-10-19T02:04:00;23.28;87.55
71297;SHT31;59082;50.658;4.608;2023-10-19T02:06:27;23.01;88.76
71297;SHT31;59082;50.658;4.608;2023-10-19T02:09:01;23.11;87.02
71297;SHT31;59082;50.658;4.608;2023-10-19T02:11:35;23.87;88.00
71297;SHT31;59082;50.658;4.608;2023-10-19T02:14:04;23.66;87.67
71297;SHT31;59082;50.658;4.608;2023-10-19T02:16:36;23.34;87.75
71297;SHT31;59082;50.658;4.608;2023-10-19T02:19:03;23.48;87.85
71297;SHT31;59082;50.658;4.608;2023-10-19T02:21:29;23.12;87.87
71297;SHT31;59082;50.658;4.608;2023-10-19T02:23:56;23.00;87.21
71297;SHT31;59082;50.658;4.608;2023-10-19T02:26:23;23.22;87.09
71297;SHT31;59082;50.658;4.608;2023-10-19T02:28:52;22.26;87.08
71297;SHT31;59082;50.658;4.608;2023-10-19T02:31:19;22.39;88.73
71297;SHT31;59082;50.658;4.608;2023-10-19T02:33:49;22.36;88.40
71297;SHT31;59082;50.658;4.608;2023-10-19T02:36:19;21.66;87.30
71297;SHT31;59082;50.658;4.608;2023-10-19T02:38:46;21.84;88.39
71297;SHT31;59082;50.658;4.608;2023-10-19T02:41:16;22.12;88.41
71297;SHT31;59082;50.658;4.608;2023-10-19T02:43:46;22.15;88.63
71297;SHT31;59082;50.658;4.608;2023-10-19T02:46:16;21.83;88.85
71297;SHT31;59082;50.658;4.608;2023-10-19T02:48:46;21.98;89.52
71297;SHT31;59082;50.658;4.608;2023-10-19T02:51:13;22.08;90.25
71297;SHT31;59082;50.658;4.608;2023-10-19T02:53:41;21.78;89.25
71297;SHT31;59082;50.658;4.608;2023-10-19T02:56:15;22.00;89.63
71297;SHT31;59082;50.658;4.608;2023-10-19T02:58:46;21.54;89.52
71297;SHT31;59082;50.658;4.608;2023-10-19T03:01:19;21.61;88.71
71297;SHT31;59082;50.658;4.608;2023-10-19T03:03:51;21.88;89.50
71297;SHT31;59082;50.658;4.608;2023-10-19T03:06:22;21.57;89.47
71297;SHT31;59082;50.658;4.608;2023-10-19T03:08:49;21.97;90.12
71297;SHT31;59082;50.658;4.608;2023-10-19T03:11:29;22.02;89.59
71297;SHT31;59082;50.658;4.608;2023-10-19T03:13:55;22.00;89.84
71297;SHT31;59082;50.658;4.608;2023-10-19T03:16:23;22.26;88.64
71297;SHT31;59082;50.658;4.608;2023-10-19T03:18:50;22.25;88.26
71297;SHT31;59082;50.658;4.608;2023-10-19T03:21:18;22.38;89.45
71297;SHT31;59082;50.658;4.608;2023-10-19T03:23:44;22.05;88.13
71297;SHT31;59082;50.658;4.608;2023-10-19T03:26:10;22.01;88.30
71297;SHT31;59082;50.658;4.608;2023-10-19T03:28:55;22.73;89.20
71297;SHT31;59082;50.658;4.608;2023-10-19T03:31:24;22.57;90.38
71297;SHT31;59082;50.658;4.608;2023-10-19T03:33:51;22.63;90.01
71297;SHT31;59082;50.658;4.608;2023-10-19T03:36:24;22.60;90.23
71297;SHT31;59082;50.658;4.608;2023-10-19T03:38:50;22.62;89.11
71297;SHT31;59082;50.658;4.608;2023-10-19T03:41:19;22.73;89.20
71297;SHT31;59082;50.658;4.608;2023-10-19T03:43:53;22.38;89.37
71297;SHT31;59082;50.658;4.608;2023-10-19T03:46:20;22.34;88.81
71297;SHT31;59082;50.658;4.608;2023-10-19T03:49:00;22.51;90.44
71297;SHT31;59082;50.658;4.608;2023-10-19T03:51:37;22.90;89.81
71297;SHT31;59082;50.658;4.608;2023-10-19T03:54:06;22.28;88.42
71297;SHT31;59082;50.658;4.608;2023-10-19T03:56:49;22.91;89.74
71297;SHT31;59082;50.658;4.608;2023-10-19T03:59:16;22.56;89.46
71297;SHT31;59082;50.658;4.608;2023-10-19T04:01:43;22.89;89.89
71297;SHT31;59082;50.658;4.608;2023-10-19T04:04:11;22.97;90.93
71297;SHT31;59082;50.658;4.608;2023-10-19T04:06:37;22.72;88.65
71297;SHT31;59082;50.658;4.608;2023-10-19T04:09:03;23.00;89.62
71297;SHT31;59082;50.658;4.608;2023-10-19T04:11:32;22.53;89.04
71297;SHT31;59082;50.658;4.608;2023-10-19T04:14:10;22.35;88.80
71297;SHT31;59082;50.658;4.608;2023-10-19T04:16:36;23.01;89.61
71297;SHT31;59082;50.658;4.608;2023-10-19T04:19:02;22.32;88.04
71297;SHT31;59082;50.658;4.608;2023-10-19T04:21:30;23.03;89.55
71297;SHT31;59082;50.658;4.608;2023-10-19T04:23:55;22.80;90.28
71297;SHT31;59082;50.658;4.608;2023-10-19T04:26:22;22.43;89.31
71297;SHT31;59082;50.658;4.608;2023-10-19T04:28:50;22.38;90.32
71297;SHT31;59082;50.658;4.608;2023-10-19T04:31:18;22.51;89.12
71297;SHT31;59082;50.658;4.608;2023-10-19T04:33:45;22.93;89.82
71297;SHT31;59082;50.658;4.608;2023-10-19T04:36:15;23.15;89.79
71297;SHT31;59082;50.658;4.608;2023-10-19T04:38:41;23.25;89.89
71297;SHT31;59082;50.658;4.608;2023-10-19T04:41:10;22.63;88.02
71297;SHT31;59082;50.658;4.608;2023-10-19T04:43:39;23.10;89.68
71297;SHT31;59082;50.658;4.608;2023-10-19T04:46:07;23.20;89.34
71297;SHT31;59082;50.658;4.608;2023-10-19T04:48:34;22.97;89.28
71297;SHT31;59082;50.658;4.608;2023-10-19T04:51:01;23.07;89.79
71297;SHT31;59082;50.658;4.608;2023-10-19T04:53:30;23.22;88.34
71297;SHT31;59082;50.658;4.608;2023-10-19T04:55:56;23.32;89.03
71297;SHT31;59082;50.658;4.608;2023-10-19T04:58:22;23.47;88.43
71297;SHT31;59082;50.658;4.608;2023-10-19T05:00:47;23.32;88.20
71297;SHT31;59082;50.658;4.608;2023-10-19T05:03:14;23.54;88.36
71297;SHT31;59082;50.658;4.608;2023-10-19T05:05:44;23.41;87.97
71297;SHT31;59082;50.658;4.608;2023-10-19T05:08:10;23.34;88.95
71297;SHT31;59082;50.658;4.608;2023-10-19T05:10:36;23.30;88.62
71297;SHT31;59082;50.658;4.608;2023-10-19T05:13:03;23.12;88.88
71297;SHT31;59082;50.658;4.608;2023-10-19T05:15:29;22.74;88.99
71297;SHT31;59082;50.658;4.608;2023-10-19T05:17:55;22.94;88.49
71297;SHT31;59082;50.658;4.608;2023-10-19T05:20:20;22.97;87.95
71297;SHT31;59082;50.658;4.608;2023-10-19T05:22:47;22.99;88.59
71297;SHT31;59082;50.658;4.608;2023-10-19T05:25:13;22.99;88.76
71297;SHT31;59082;50.658;4.608;2023-10-19T05:27:39;23.31;89.30
71297;SHT31;59082;50.658;4.608;2023-10-19T05:30:05;22.59;88.36
71297;SHT31;59082;50.658;4.608;2023-10-19T05:32:35;22.91;89.04
71297;SHT31;59082;50.658;4.608;2023-10-19T05:35:01;23.03;89.12
71297;SHT31;59082;50.658;4.608;2023-10-19T05:37:29;22.87;89.41
71297;SHT31;59082;50.658;4.608;2023-10-19T05:39:55;22.59;88.96
71297;SHT31;59082;50.658;4.608;2023-10-19T05:42:21;22.53;89.71
71297;SHT31;59082;50.658;4.608;2023-10-19T05:44:47;22.72;89.14
71297;SHT31;59082;50.658;4.608;2023-10-19T05:47:13;22.57;89.07
71297;SHT31;59082;50.658;4.608;2023-10-19T05:49:38;22.67;89.38
71297;SHT31;59082;50.658;4.608;2023-10-19T05:52:04;22.66;88.04
71297;SHT31;59082;50.658;4.608;2023-10-19T05:54:29;23.03;89.64
71297;SHT31;59082;50.658;4.608;2023-10-19T05:56:55;23.07;88.77
71297;SHT31;59082;50.658;4.608;2023-10-19T05:59:21;22.97;89.10
71297;SHT31;59082;50.658;4.608;2023-10-19T06:01:49;22.79;88.12
71297;SHT31;59082;50.658;4.608;2023-10-19T06:04:15;22.84;88.87
71297;SHT31;59082;50.658;4.608;2023-10-19T06:06:40;22.80;88.90
71297;SHT31;59082;50.658;4.608;2023-10-19T06:09:06;22.86;88.77
71297;SHT31;59082;50.658;4.608;2023-10-19T06:11:34;22.62;87.91
71297;SHT31;59082;50.658;4.608;2023-10-19T06:14:08;22.74;88.47
71297;SHT31;59082;50.658;4.608;2023-10-19T06:16:35;22.77;88.63
71297;SHT31;59082;50.658;4.608;2023-10-19T06:19:00;22.48;88.44
71297;SHT31;59082;50.658;4.608;2023-10-19T06:21:26;22.55;89.59
71297;SHT31;59082;50.658;4.608;2023-10-19T06:23:52;22.12;88.55
71297;SHT31;59082;50.658;4.608;2023-10-19T06:26:19;22.01;88.50
71297;SHT31;59082;50.658;4.608;2023-10-19T06:28:44;22.39;89.11
71297;SHT31;59082;50.658;4.608;2023-10-19T06:31:10;22.04;88.00
71297;SHT31;59082;50.658;4.608;2023-10-19T06:33:36;22.41;88.66
71297;SHT31;59082;50.658;4.608;2023-10-19T06:36:02;22.41;88.36
71297;SHT31;59082;50.658;4.608;2023-10-19T06:38:29;22.38;89.08
71297;SHT31;59082;50.658;4.608;2023-10-19T06:40:55;22.41;88.58
71297;SHT31;59082;50.658;4.608;2023-10-19T06:43:21;22.42;88.45
71297;SHT31;59082;50.658;4.608;2023-10-19T06:45:49;22.15;88.26
71297;SHT31;59082;50.658;4.608;2023-10-19T06:48:15;22.42;88.41
71297;SHT31;59082;50.658;4.608;2023-10-19T06:50:40;22.51;89.05
71297;SHT31;59082;50.658;4.608;2023-10-19T06:53:06;22.18;89.11
71297;SHT31;59082;50.658;4.608;2023-10-19T06:55:32;22.57;89.06
71297;SHT31;59082;50.658;4.608;2023-10-19T06:57:58;22.39;89.35
71297;SHT31;59082;50.658;4.608;2023-10-19T07:00:25;22.79;89.74
71297;SHT31;59082;50.658;4.608;2023-10-19T07:02:53;22.46;88.01
71297;SHT31;59082;50.658;4.608;2023-10-19T07:05:20;22.86;88.27
71297;SHT31;59082;50.658;4.608;2023-10-19T07:07:48;23.07;88.50
71297;SHT31;59082;50.658;4.608;2023-10-19T07:10:15;23.21;87.84
71297;SHT31;59082;50.658;4.608;2023-10-19T07:12:44;23.17;88.09
71297;SHT31;59082;50.658;4.608;2023-10-19T07:15:10;23.38;88.05
71297;SHT31;59082;50.658;4.608;2023-10-19T07:17:48;22.93;86.62
71297;SHT31;59082;50.658;4.608;2023-10-19T07:20:15;23.28;88.19
71297;SHT31;59082;50.658;4.608;2023-10-19T07:23:08;23.34;87.52
71297;SHT31;59082;50.658;4.608;2023-10-19T07:25:50;23.15;87.38
71297;SHT31;59082;50.658;4.608;2023-10-19T07:28:25;23.56;87.46
71297;SHT31;59082;50.658;4.608;2023-10-19T07:30:55;23.63;87.87
71297;SHT31;59082;50.658;4.608;2023-10-19T07:33:22;23.32;86.52
71297;SHT31;59082;50.658;4.608;2023-10-19T07:35:50;24.02;87.90
71297;SHT31;59082;50.658;4.608;2023-10-19T07:38:25;24.00;86.99
71297;SHT31;59082;50.658;4.608;2023-10-19T07:40:51;24.14;87.20
71297;SHT31;59082;50.658;4.608;2023-10-19T07:43:18;23.97;87.00
71297;SHT31;59082;50.658;4.608;2023-10-19T07:45:46;23.82;87.04
71297;SHT31;59082;50.658;4.608;2023-10-19T07:48:13;23.97;87.92
71297;SHT31;59082;50.658;4.608;2023-10-19T07:50:40;23.69;86.97
71297;SHT31;59082;50.658;4.608;2023-10-19T07:53:08;23.47;86.83
71297;SHT31;59082;50.658;4.608;2023-10-19T07:55:37;23.83;86.97
71297;SHT31;59082;50.658;4.608;2023-10-19T07:58:03;24.00;86.68
71297;SHT31;59082;50.658;4.608;2023-10-19T08:00:29;24.68;87.78
71297;SHT31;59082;50.658;4.608;2023-10-19T08:02:55;24.79;88.02
71297;SHT31;59082;50.658;4.608;2023-10-19T08:05:22;24.57;87.73
71297;SHT31;59082;50.658;4.608;2023-10-19T08:07:48;24.00;87.46
71297;SHT31;59082;50.658;4.608;2023-10-19T08:10:19;24.37;87.90
71297;SHT31;59082;50.658;4.608;2023-10-19T08:12:46;24.64;88.33
71297;SHT31;59082;50.658;4.608;2023-10-19T08:15:17;24.38;86.98
71297;SHT31;59082;50.658;4.608;2023-10-19T08:17:48;24.43;86.80
71297;SHT31;59082;50.658;4.608;2023-10-19T08:20:15;24.79;88.60
71297;SHT31;59082;50.658;4.608;2023-10-19T08:22:56;24.61;86.75
71297;SHT31;59082;50.658;4.608;2023-10-19T08:25:22;24.68;87.53
71297;SHT31;59082;50.658;4.608;2023-10-19T08:27:49;24.73;86.61
71297;SHT31;59082;50.658;4.608;2023-10-19T08:30:17;24.88;85.63
71297;SHT31;59082;50.658;4.608;2023-10-19T08:32:44;25.57;86.00
71297;SHT31;59082;50.658;4.608;2023-10-19T08:35:17;25.17;85.33
71297;SHT31;59082;50.658;4.608;2023-10-19T08:38:00;25.54;85.92
71297;SHT31;59082;50.658;4.608;2023-10-19T08:40:29;25.67;86.67
71297;SHT31;59082;50.658;4.608;2023-10-19T08:42:56;25.54;86.55
71297;SHT31;59082;50.658;4.608;2023-10-19T08:45:21;25.70;87.33
71297;SHT31;59082;50.658;4.608;2023-10-19T08:47:56;25.31;86.34
71297;SHT31;59082;50.658;4.608;2023-10-19T08:50:23;25.57;87.12
71297;SHT31;59082;50.658;4.608;2023-10-19T08:52:52;25.31;87.40
71297;SHT31;59082;50.658;4.608;2023-10-19T08:55:19;24.61;84.78
71297;SHT31;59082;50.658;4.608;2023-10-19T08:57:46;25.03;86.22
71297;SHT31;59082;50.658;4.608;2023-10-19T09:00:14;25.22;86.22
71297;SHT31;59082;50.658;4.608;2023-10-19T09:02:43;25.17;86.31
71297;SHT31;59082;50.658;4.608;2023-10-19T09:05:08;25.38;86.40
71297;SHT31;59082;50.658;4.608;2023-10-19T09:07:46;25.44;86.62
71297;SHT31;59082;50.658;4.608;2023-10-19T09:10:16;25.40;85.03
71297;SHT31;59082;50.658;4.608;2023-10-19T09:12:42;27.57;84.62
71297;SHT31;59082;50.658;4.608;2023-10-19T09:15:28;25.78;85.50
71297;SHT31;59082;50.658;4.608;2023-10-19T09:18:20;26.90;86.41
71297;SHT31;59082;50.658;4.608;2023-10-19T09:20:49;26.44;85.52
71297;SHT31;59082;50.658;4.608;2023-10-19T09:23:34;26.50;86.21
71297;SHT31;59082;50.658;4.608;2023-10-19T09:26:01;26.69;85.54
71297;SHT31;59082;50.658;4.608;2023-10-19T09:28:31;27.15;86.11
71297;SHT31;59082;50.658;4.608;2023-10-19T09:30:59;27.16;84.46
71297;SHT31;59082;50.658;4.608;2023-10-19T09:33:26;27.25;83.90
71297;SHT31;59082;50.658;4.608;2023-10-19T09:35:52;27.90;85.67
71297;SHT31;59082;50.658;4.608;2023-10-19T09:38:19;27.04;83.13
71297;SHT31;59082;50.658;4.608;2023-10-19T09:40:50;27.57;84.44
71297;SHT31;59082;50.658;4.608;2023-10-19T09:45:57;27.73;83.41
71297;SHT31;59082;50.658;4.608;2023-10-19T09:48:26;27.70;84.03
71297;SHT31;59082;50.658;4.608;2023-10-19T09:50:54;27.64;83.20
71297;SHT31;59082;50.658;4.608;2023-10-19T09:53:28;27.46;83.99
71297;SHT31;59082;50.658;4.608;2023-10-19T09:55:58;28.08;83.20
71297;SHT31;59082;50.658;4.608;2023-10-19T09:58:28;27.60;84.63
71297;SHT31;59082;50.658;4.608;2023-10-19T10:00:57;27.83;83.60
71297;SHT31;59082;50.658;4.608;2023-10-19T10:07:04;28.90;83.06
71297;SHT31;59082;50.658;4.608;2023-10-19T10:09:03;29.71;82.23
71297;SHT31;59082;50.658;4.608;2023-10-19T10:11:29;29.04;81.63
71297;SHT31;59082;50.658;4.608;2023-10-19T10:13:57;28.55;82.25
71297;SHT31;59082;50.658;4.608;2023-10-19T10:16:27;27.84;82.22
71297;SHT31;59082;50.658;4.608;2023-10-19T10:18:58;27.63;83.15
71297;SHT31;59082;50.658;4.608;2023-10-19T10:21:28;27.45;83.34
71297;SHT31;59082;50.658;4.608;2023-10-19T10:24:00;26.74;84.86
71297;SHT31;59082;50.658;4.608;2023-10-19T10:26:30;27.07;85.86
71297;SHT31;59082;50.658;4.608;2023-10-19T10:31:47;26.78;84.63
71297;SHT31;59082;50.658;4.608;2023-10-19T10:37:07;26.90;84.23
71297;SHT31;59082;50.658;4.608;2023-10-19T10:39:34;26.44;84.43
71297;SHT31;59082;50.658;4.608;2023-10-19T10:42:08;26.42;84.16
71297;SHT31;59082;50.658;4.608;2023-10-19T10:44:41;26.28;83.05
71297;SHT31;59082;50.658;4.608;2023-10-19T10:47:18;26.19;84.70
71297;SHT31;59082;50.658;4.608;2023-10-19T10:49:50;25.31;84.36
71297;SHT31;59082;50.658;4.608;2023-10-19T10:52:36;25.50;85.03
71297;SHT31;59082;50.658;4.608;2023-10-19T10:55:18;25.77;85.16
71297;SHT31;59082;50.658;4.608;2023-10-19T10:57:44;25.38;85.44
71297;SHT31;59082;50.658;4.608;2023-10-19T11:00:14;24.50;85.14
71297;SHT31;59082;50.658;4.608;2023-10-19T11:02:46;25.96;86.20
71297;SHT31;59082;50.658;4.608;2023-10-19T11:05:14;26.01;84.94
71297;SHT31;59082;50.658;4.608;2023-10-19T11:07:40;26.39;85.54
71297;SHT31;59082;50.658;4.608;2023-10-19T11:10:07;26.56;85.14
71297;SHT31;59082;50.658;4.608;2023-10-19T11:12:35;26.46;85.65
71297;SHT31;59082;50.658;4.608;2023-10-19T11:15:01;26.28;84.90
71297;SHT31;59082;50.658;4.608;2023-10-19T11:17:42;26.84;86.09
71297;SHT31;59082;50.658;4.608;2023-10-19T11:20:09;26.35;84.84
71297;SHT31;59082;50.658;4.608;2023-10-19T11:22:48;26.12;85.36
71297;SHT31;59082;50.658;4.608;2023-10-19T11:25:22;25.74;85.65
71297;SHT31;59082;50.658;4.608;2023-10-19T11:27:47;25.73;84.47
71297;SHT31;59082;50.658;4.608;2023-10-19T11:30:15;25.60;85.34
71297;SHT31;59082;50.658;4.608;2023-10-19T11:32:47;25.85;85.73
71297;SHT31;59082;50.658;4.608;2023-10-19T11:35:13;25.81;85.22
71297;SHT31;59082;50.658;4.608;2023-10-19T11:37:49;25.64;85.50
71297;SHT31;59082;50.658;4.608;2023-10-19T11:40:15;25.37;85.55
71297;SHT31;59082;50.658;4.608;2023-10-19T11:42:42;25.43;86.01
71297;SHT31;59082;50.658;4.608;2023-10-19T11:45:08;25.40;86.10
71297;SHT31;59082;50.658;4.608;2023-10-19T11:47:33;25.51;85.74
71297;SHT31;59082;50.658;4.608;2023-10-19T11:50:00;25.38;86.42
71297;SHT31;59082;50.658;4.608;2023-10-19T11:52:25;25.05;86.43
71297;SHT31;59082;50.658;4.608;2023-10-19T11:54:53;24.95;86.16
71297;SHT31;59082;50.658;4.608;2023-10-19T11:57:19;24.76;86.85
71297;SHT31;59082;50.658;4.608;2023-10-19T11:59:45;24.58;99.99
71297;SHT31;59082;50.658;4.608;2023-10-19T12:02:10;24.55;87.32
71297;SHT31;59082;50.658;4.608;2023-10-19T12:04:37;24.17;89.35
71297;SHT31;59082;50.658;4.608;2023-10-19T12:07:02;24.27;87.54
71297;SHT31;59082;50.658;4.608;2023-10-19T12:09:29;23.85;87.57
71297;SHT31;59082;50.658;4.608;2023-10-19T12:11:55;23.77;87.77
71297;SHT31;59082;50.658;4.608;2023-10-19T12:14:21;24.07;90.88
71297;SHT31;59082;50.658;4.608;2023-10-19T12:16:48;23.93;89.80
71297;SHT31;59082;50.658;4.608;2023-10-19T12:19:15;24.16;88.57
71297;SHT31;59082;50.658;4.608;2023-10-19T12:21:42;24.78;87.59
71297;SHT31;59082;50.658;4.608;2023-10-19T12:24:08;24.99;87.48
71297;SHT31;59082;50.658;4.608;2023-10-19T12:26:34;25.88;86.90
71297;SHT31;59082;50.658;4.608;2023-10-19T12:29:00;27.45;85.05
71297;SHT31;59082;50.658;4.608;2023-10-19T12:31:25;27.91;84.02
71297;SHT31;59082;50.658;4.608;2023-10-19T12:33:51;27.90;84.53
71297;SHT31;59082;50.658;4.608;2023-10-19T12:36:18;28.24;84.33
71297;SHT31;59082;50.658;4.608;2023-10-19T12:38:52;27.91;84.32
71297;SHT31;59082;50.658;4.608;2023-10-19T12:41:20;28.18;84.37
71297;SHT31;59082;50.658;4.608;2023-10-19T12:43:47;29.13;84.69
71297;SHT31;59082;50.658;4.608;2023-10-19T12:46:15;29.42;84.73
71297;SHT31;59082;50.658;4.608;2023-10-19T12:48:42;28.89;85.10
71297;SHT31;59082;50.658;4.608;2023-10-19T12:51:08;29.03;83.48
71297;SHT31;59082;50.658;4.608;2023-10-19T12:53:39;28.75;84.71
71297;SHT31;59082;50.658;4.608;2023-10-19T12:56:05;27.41;84.93
71297;SHT31;59082;50.658;4.608;2023-10-19T12:58:33;27.11;85.40
71297;SHT31;59082;50.658;4.608;2023-10-19T13:00:58;25.92;85.83
71297;SHT31;59082;50.658;4.608;2023-10-19T13:03:24;26.11;86.16
71297;SHT31;59082;50.658;4.608;2023-10-19T13:05:56;26.11;85.66
71297;SHT31;59082;50.658;4.608;2023-10-19T13:08:23;25.70;85.85
71297;SHT31;59082;50.658;4.608;2023-10-19T13:10:53;26.12;86.28
71297;SHT31;59082;50.658;4.608;2023-10-19T13:13:19;26.40;85.01
71297;SHT31;59082;50.658;4.608;2023-10-19T13:15:49;26.01;85.50
71297;SHT31;59082;50.658;4.608;2023-10-19T13:18:15;25.94;84.74
71297;SHT31;59082;50.658;4.608;2023-10-19T13:20:49;26.28;84.93
71297;SHT31;59082;50.658;4.608;2023-10-19T13:23:14;26.02;85.65
71297;SHT31;59082;50.658;4.608;2023-10-19T13:25:47;26.50;85.58
71297;SHT31;59082;50.658;4.608;2023-10-19T13:28:20;28.22;84.65
71297;SHT31;59082;50.658;4.608;2023-10-19T13:30:50;26.29;84.10
71297;SHT31;59082;50.658;4.608;2023-10-19T13:33:17;26.33;85.29
71297;SHT31;59082;50.658;4.608;2023-10-19T13:35:44;26.74;85.04
71297;SHT31;59082;50.658;4.608;2023-10-19T13:38:11;26.35;85.10
71297;SHT31;59082;50.658;4.608;2023-10-19T13:40:39;26.21;84.50
71297;SHT31;59082;50.658;4.608;2023-10-19T13:43:06;27.29;85.40
71297;SHT31;59082;50.658;4.608;2023-10-19T13:45:36;28.45;84.35
71297;SHT31;59082;50.658;4.608;2023-10-19T13:48:03;28.90;82.53
71297;SHT31;59082;50.658;4.608;2023-10-19T13:50:30;28.11;83.97
71297;SHT31;59082;50.658;4.608;2023-10-19T13:52:56;27.79;84.83
71297;SHT31;59082;50.658;4.608;2023-10-19T13:55:23;27.25;85.42
71297;SHT31;59082;50.658;4.608;2023-10-19T13:57:49;26.44;85.34
71297;SHT31;59082;50.658;4.608;2023-10-19T14:00:16;25.80;85.75
71297;SHT31;59082;50.658;4.608;2023-10-19T14:02:56;26.06;86.40
71297;SHT31;59082;50.658;4.608;2023-10-19T14:05:24;25.57;86.84
71297;SHT31;59082;50.658;4.608;2023-10-19T14:07:50;25.44;86.35
71297;SHT31;59082;50.658;4.608;2023-10-19T14:10:17;25.31;86.78
71297;SHT31;59082;50.658;4.608;2023-10-19T14:12:45;25.27;86.58
71297;SHT31;59082;50.658;4.608;2023-10-19T14:15:20;25.17;86.83
71297;SHT31;59082;50.658;4.608;2023-10-19T14:17:47;25.36;86.25
71297;SHT31;59082;50.658;4.608;2023-10-19T14:20:17;25.74;85.89
71297;SHT31;59082;50.658;4.608;2023-10-19T14:22:48;25.46;85.45
71297;SHT31;59082;50.658;4.608;2023-10-19T14:25:15;25.67;86.10
71297;SHT31;59082;50.658;4.608;2023-10-19T14:27:45;25.84;85.59
71297;SHT31;59082;50.658;4.608;2023-10-19T14:30:12;25.91;86.10
71297;SHT31;59082;50.658;4.608;2023-10-19T14:32:43;25.61;86.15
71297;SHT31;59082;50.658;4.608;2023-10-19T14:35:10;25.33;86.16
71297;SHT31;59082;50.658;4.608;2023-10-19T14:37:43;25.19;86.15
71297;SHT31;59082;50.658;4.608;2023-10-19T14:40:13;24.90;86.32
71297;SHT31;59082;50.658;4.608;2023-10-19T14:42:41;25.13;86.56
71297;SHT31;59082;50.658;4.608;2023-10-19T14:45:11;25.33;86.24
71297;SHT31;59082;50.658;4.608;2023-10-19T14:47:40;25.43;86.17
71297;SHT31;59082;50.658;4.608;2023-10-19T14:50:11;25.70;85.11
71297;SHT31;59082;50.658;4.608;2023-10-19T14:52:40;26.32;84.93
71297;SHT31;59082;50.658;4.608;2023-10-19T14:55:07;26.70;85.29
71297;SHT31;59082;50.658;4.608;2023-10-19T14:57:33;26.74;85.94
71297;SHT31;59082;50.658;4.608;2023-10-19T14:59:59;26.43;85.26
71297;SHT31;59082;50.658;4.608;2023-10-19T15:02:49;26.77;85.93
71297;SHT31;59082;50.658;4.608;2023-10-19T15:05:16;26.86;85.15
71297;SHT31;59082;50.658;4.608;2023-10-19T15:07:43;26.78;85.16
71297;SHT31;59082;50.658;4.608;2023-10-19T15:10:12;27.05;84.13
71297;SHT31;59082;50.658;4.608;2023-10-19T15:12:41;27.05;84.65
71297;SHT31;59082;50.658;4.608;2023-10-19T15:15:07;26.67;84.59
71297;SHT31;59082;50.658;4.608;2023-10-19T15:17:46;26.69;84.85
71297;SHT31;59082;50.658;4.608;2023-10-19T15:20:13;26.60;84.68
71297;SHT31;59082;50.658;4.608;2023-10-19T15:22:44;25.73;84.47
71297;SHT31;59082;50.658;4.608;2023-10-19T15:25:10;25.44;84.93
71297;SHT31;59082;50.658;4.608;2023-10-19T15:27:43;26.03;85.89
71297;SHT31;59082;50.658;4.608;2023-10-19T15:30:10;26.01;85.06
71297;SHT31;59082;50.658;4.608;2023-10-19T15:32:37;25.61;86.49
71297;SHT31;59082;50.658;4.608;2023-10-19T15:35:03;25.67;86.50
71297;SHT31;59082;50.658;4.608;2023-10-19T15:37:29;25.48;85.94
71297;SHT31;59082;50.658;4.608;2023-10-19T15:39:55;25.61;86.86
71297;SHT31;59082;50.658;4.608;2023-10-19T15:42:21;25.61;86.31
71297;SHT31;59082;50.658;4.608;2023-10-19T15:44:50;25.71;86.20
71297;SHT31;59082;50.658;4.608;2023-10-19T15:47:17;25.31;86.21
71297;SHT31;59082;50.658;4.608;2023-10-19T15:49:54;25.40;86.66
71297;SHT31;59082;50.658;4.608;2023-10-19T15:52:26;25.26;85.69